Time;durP1;ratioP1;P1;durP2;ratioP2;P2;SDS_P1;SDS_P2;PMS_P1;PMS_P2;Temp;Humidity;BMP_temperature;BMP_pressure;BME280_temperature;BME280_humidity;BME280_pressure;Samples;Min_cycle;Max_cycle;Signal;HPM_P1;HPM_P2
2022/03/30 00:00:07;;;;;;;62.78;41.15;;;8.60;97.70;;;;;;5033734;28;20443;-48
2022/03/30 00:02:37;;;;;;;62.38;43.03;;;8.50;97.70;;;;;;5035097;28;20048;-49
2022/03/30 00:05:04;;;;;;;62.25;40.42;;;8.60;97.90;;;;;;5033458;28;20116;-46
2022/03/30 00:07:32;;;;;;;63.60;41.72;;;8.60;97.70;;;;;;5033306;28;20064;-50
2022/03/30 00:09:58;;;;;;;62.58;43.58;;;8.60;97.70;;;;;;5033282;28;20112;-45
2022/03/30 00:12:25;;;;;;;63.22;42.92;;;8.60;98.00;;;;;;5033380;28;20045;-47
2022/03/30 00:14:52;;;;;;;64.43;43.20;;;8.50;98.00;;;;;;5033356;28;20056;-49
2022/03/30 00:17:19;;;;;;;68.85;44.92;;;8.50;98.20;;;;;;5033168;28;20393;-47
2022/03/30 00:19:45;;;;;;;63.03;43.55;;;8.50;98.10;;;;;;5033288;28;20381;-47
2022/03/30 00:22:12;;;;;;;64.50;43.85;;;8.60;98.10;;;;;;5033104;28;20477;-44
2022/03/30 00:24:39;;;;;;;68.60;47.28;;;8.50;98.10;;;;;;5033053;28;20041;-46
2022/03/30 00:27:06;;;;;;;69.32;45.10;;;8.50;98.30;;;;;;5032941;28;20069;-44
2022/03/30 00:29:34;;;;;;;79.68;46.00;;;8.50;98.30;;;;;;5032974;28;20053;-47
2022/03/30 00:32:00;;;;;;;67.97;45.67;;;8.50;98.40;;;;;;5035960;28;20488;-47
2022/03/30 00:34:27;;;;;;;70.50;46.65;;;8.50;98.40;;;;;;5033083;28;20075;-51
2022/03/30 00:36:54;;;;;;;66.75;45.33;;;8.60;98.50;;;;;;5033058;28;20496;-48
2022/03/30 00:39:21;;;;;;;71.72;46.35;;;8.60;98.40;;;;;;5032830;28;20099;-44
2022/03/30 00:41:47;;;;;;;71.15;46.50;;;8.50;98.50;;;;;;5032811;28;20041;-48
2022/03/30 00:44:14;;;;;;;73.65;47.35;;;8.60;98.50;;;;;;5032980;28;20112;-49
2022/03/30 00:46:43;;;;;;;71.60;47.67;;;8.50;98.50;;;;;;5032645;28;20045;-45
2022/03/30 00:49:10;;;;;;;69.68;45.05;;;8.50;98.70;;;;;;5036553;28;20050;-50
2022/03/30 00:51:36;;;;;;;82.40;50.78;;;8.50;98.40;;;;;;5032726;28;20076;-43
2022/03/30 00:54:03;;;;;;;77.60;49.88;;;8.50;98.50;;;;;;5032618;28;20050;-50
2022/03/30 00:56:30;;;;;;;74.00;48.20;;;8.50;98.60;;;;;;5032990;28;20033;-46
2022/03/30 00:58:57;;;;;;;80.30;50.38;;;8.40;98.60;;;;;;5032724;28;20099;-46
2022/03/30 01:01:24;;;;;;;74.80;49.65;;;8.50;98.70;;;;;;5032528;28;20182;-47
2022/03/30 01:03:51;;;;;;;75.57;48.80;;;8.40;98.70;;;;;;5032712;28;20029;-47
2022/03/30 01:06:18;;;;;;;75.57;49.08;;;8.40;98.70;;;;;;5032687;28;20068;-47
2022/03/30 01:08:46;;;;;;;77.20;50.42;;;8.40;98.90;;;;;;5030806;28;20041;-44
2022/03/30 01:11:12;;;;;;;75.30;48.60;;;8.40;99.00;;;;;;5030936;28;20414;-44
2022/03/30 01:13:39;;;;;;;80.57;50.30;;;8.40;99.10;;;;;;5029165;28;20148;-53
2022/03/30 01:16:26;;;;;;;78.70;50.00;;;8.40;99.30;;;;;;5030095;28;20037;-53
2022/03/30 01:18:52;;;;;;;75.43;47.78;;;8.40;99.30;;;;;;5031178;28;20046;-52
2022/03/30 08:37:09;;;;;;;95.38;45.22;;;7.60;99.90;;;;;;5069305;28;20457;-45
2022/03/30 08:39:35;;;;;;;91.35;45.53;;;7.60;99.90;;;;;;5056176;28;20544;-50
2022/03/30 08:42:03;;;;;;;89.47;44.30;;;7.80;99.90;;;;;;5043216;28;20045;-46
2022/03/30 08:44:29;;;;;;;76.85;44.08;;;8.00;99.90;;;;;;5048785;28;20423;-50
2022/03/30 08:46:56;;;;;;;94.43;43.55;;;8.10;99.90;;;;;;5049837;28;20064;-52
2022/03/30 08:49:23;;;;;;;79.32;43.58;;;8.20;99.90;;;;;;5050637;28;20041;-49
2022/03/30 08:51:50;;;;;;;78.28;42.80;;;8.40;99.90;;;;;;5049104;28;20072;-49
2022/03/30 08:54:17;;;;;;;80.15;39.92;;;8.50;99.90;;;;;;5049588;28;20038;-48
2022/03/30 08:56:43;;;;;;;83.05;41.63;;;8.60;99.90;;;;;;5046332;28;20091;-48
2022/03/30 08:59:10;;;;;;;77.90;42.15;;;8.70;99.90;;;;;;5047190;28;20041;-51
2022/03/30 09:01:37;;;;;;;70.95;41.03;;;8.80;99.90;;;;;;5049193;28;20064;-52
2022/03/30 09:04:04;;;;;;;72.82;41.47;;;8.90;99.90;;;;;;5049786;28;20531;-51
2022/03/30 09:06:31;;;;;;;70.20;40.67;;;8.90;99.90;;;;;;5049547;28;20111;-47
2022/03/30 09:08:57;;;;;;;62.88;40.40;;;9.00;99.90;;;;;;5049423;28;20052;-52
2022/03/30 09:11:24;;;;;;;64.32;39.47;;;9.10;99.90;;;;;;5049173;28;20131;-49
2022/03/30 09:13:51;;;;;;;61.80;39.00;;;9.10;99.90;;;;;;5048051;28;20125;-50
2022/03/30 09:16:18;;;;;;;66.85;39.25;;;9.20;99.90;;;;;;5047758;28;20381;-47
2022/03/30 09:18:45;;;;;;;71.57;39.67;;;9.30;99.90;;;;;;5049141;28;20045;-47
2022/03/30 09:21:11;;;;;;;63.78;38.30;;;9.40;99.90;;;;;;5049077;28;20481;-50
2022/03/30 09:23:38;;;;;;;65.20;37.45;;;9.60;99.70;;;;;;5048960;28;20045;-48
2022/03/30 09:26:05;;;;;;;63.78;37.65;;;9.60;99.10;;;;;;5047754;28;20038;-50
2022/03/30 09:28:32;;;;;;;60.15;36.80;;;9.70;99.30;;;;;;5049287;28;20916;-47
2022/03/30 09:30:59;;;;;;;63.85;37.25;;;9.70;98.70;;;;;;5052781;28;20331;-48
2022/03/30 09:33:26;;;;;;;70.60;37.30;;;9.70;99.40;;;;;;5048498;28;20095;-51
2022/03/30 09:35:52;;;;;;;48.92;36.72;;;9.70;99.20;;;;;;5048438;28;20149;-50
2022/03/30 09:38:19;;;;;;;60.65;38.38;;;9.70;99.00;;;;;;5047472;28;20040;-49
2022/03/30 09:40:47;;;;;;;62.42;37.53;;;9.70;98.60;;;;;;5048675;28;20116;-46
2022/03/30 09:43:14;;;;;;;56.97;37.05;;;9.80;99.00;;;;;;5048847;28;20041;-49
2022/03/30 09:45:41;;;;;;;58.65;37.50;;;9.80;98.80;;;;;;5048676;28;20076;-53
2022/03/30 09:48:07;;;;;;;60.53;39.33;;;9.80;98.60;;;;;;5037741;28;20060;-52
2022/03/30 09:50:34;;;;;;;60.17;38.53;;;9.90;98.80;;;;;;5035192;28;20072;-48
2022/03/30 09:53:01;;;;;;;58.17;38.63;;;10.00;98.70;;;;;;5035239;28;20056;-47
2022/03/30 09:55:28;;;;;;;60.55;37.22;;;10.10;98.80;;;;;;5035205;28;20121;-47
2022/03/30 09:57:55;;;;;;;56.75;37.70;;;10.10;98.10;;;;;;5035241;28;20037;-46
2022/03/30 10:00:22;;;;;;;63.58;37.38;;;10.20;98.60;;;;;;5035126;28;20124;-53
2022/03/30 10:02:49;;;;;;;62.35;38.70;;;10.30;98.10;;;;;;5035201;28;20048;-53
2022/03/30 10:05:16;;;;;;;59.28;37.65;;;10.40;98.30;;;;;;5035110;28;20054;-51
2022/03/30 10:07:45;;;;;;;57.28;36.20;;;10.60;97.90;;;;;;5037231;28;20048;-44
2022/03/30 10:10:12;;;;;;;55.53;36.63;;;10.70;97.70;;;;;;5034908;28;20045;-48
2022/03/30 10:12:39;;;;;;;54.65;36.97;;;10.80;97.80;;;;;;5034976;28;20041;-51
2022/03/30 10:15:05;;;;;;;57.35;35.53;;;10.90;97.60;;;;;;5033715;28;20052;-49
2022/03/30 10:17:32;;;;;;;54.92;36.15;;;11.00;97.20;;;;;;5034584;28;20049;-49
2022/03/30 10:20:02;;;;;;;55.65;36.88;;;11.10;97.10;;;;;;5034709;28;20045;-53
2022/03/30 10:22:30;;;;;;;58.88;35.15;;;11.30;97.10;;;;;;5034830;28;20049;-49
2022/03/30 10:24:59;;;;;;;52.65;36.25;;;11.20;96.50;;;;;;5034647;28;20469;-54
2022/03/30 10:27:27;;;;;;;53.03;34.70;;;11.20;96.70;;;;;;5032911;28;20129;-48
2022/03/30 10:29:54;;;;;;;55.33;36.28;;;11.20;96.30;;;;;;5034755;28;20046;-49
2022/03/30 10:32:21;;;;;;;68.07;37.47;;;11.30;96.40;;;;;;5034477;28;20493;-47
2022/03/30 10:34:49;;;;;;;53.53;36.92;;;11.40;96.10;;;;;;5035116;28;20087;-53
2022/03/30 10:37:16;;;;;;;57.70;35.95;;;11.60;95.80;;;;;;5036070;28;20581;-47
2022/03/30 10:39:43;;;;;;;54.35;36.88;;;11.70;95.60;;;;;;5035159;28;20052;-48
2022/03/30 10:42:25;;;;;;;55.83;36.92;;;11.90;95.70;;;;;;5034413;28;20121;-48
2022/03/30 10:44:53;;;;;;;53.15;35.67;;;11.90;94.60;;;;;;5034130;28;20037;-51
2022/03/30 10:47:20;;;;;;;54.53;36.90;;;12.00;95.10;;;;;;5034649;28;20443;-49
2022/03/30 10:49:47;;;;;;;53.00;37.00;;;11.90;94.10;;;;;;5034370;28;20061;-45
2022/03/30 10:52:14;;;;;;;51.90;36.85;;;12.00;94.10;;;;;;5033515;28;20048;-46
2022/03/30 10:54:41;;;;;;;54.78;36.63;;;12.00;94.50;;;;;;5033927;28;20064;-49
2022/03/30 10:57:07;;;;;;;53.40;37.28;;;12.20;93.40;;;;;;5034052;28;20063;-53
2022/03/30 10:59:34;;;;;;;56.42;35.90;;;12.30;93.60;;;;;;5033847;28;20080;-47
2022/03/30 11:02:01;;;;;;;50.92;34.78;;;12.30;93.40;;;;;;5034348;28;20053;-49
2022/03/30 11:04:28;;;;;;;52.90;37.40;;;12.30;93.70;;;;;;5033925;28;20049;-45
2022/03/30 11:06:54;;;;;;;51.55;36.67;;;12.40;93.20;;;;;;5034158;28;20045;-47
2022/03/30 11:09:23;;;;;;;52.15;36.70;;;12.40;93.30;;;;;;5034265;28;20111;-49
2022/03/30 11:11:50;;;;;;;53.85;36.83;;;12.40;92.00;;;;;;5033739;28;20049;-50
2022/03/30 11:14:17;;;;;;;52.92;36.72;;;12.40;92.10;;;;;;5033828;28;20041;-53
2022/03/30 11:16:44;;;;;;;52.95;36.08;;;12.50;91.90;;;;;;5033752;28;20068;-50
2022/03/30 11:19:11;;;;;;;52.42;36.60;;;12.60;92.30;;;;;;5033794;28;20128;-48
2022/03/30 11:21:37;;;;;;;54.13;37.70;;;12.70;92.10;;;;;;5033650;28;20044;-50
2022/03/30 11:24:04;;;;;;;57.22;37.78;;;12.80;91.80;;;;;;5032328;28;20481;-51
2022/03/30 11:26:31;;;;;;;52.20;35.75;;;12.90;91.60;;;;;;5032245;28;20076;-49
2022/03/30 11:28:58;;;;;;;52.50;36.63;;;12.90;91.20;;;;;;5033559;28;20076;-47
2022/03/30 11:31:25;;;;;;;49.95;36.03;;;12.70;91.20;;;;;;5033465;28;20056;-46
2022/03/30 11:33:53;;;;;;;50.13;35.15;;;12.60;90.80;;;;;;5033529;28;20037;-52
2022/03/30 11:36:20;;;;;;;51.78;34.75;;;12.60;90.70;;;;;;5033076;28;20054;-52
2022/03/30 11:38:47;;;;;;;46.05;34.60;;;12.60;90.30;;;;;;5036454;28;20037;-48
2022/03/30 11:41:15;;;;;;;50.17;34.13;;;12.40;89.90;;;;;;5032583;28;20148;-49
2022/03/30 11:46:38;;;;;;;51.63;36.58;;;12.20;90.70;;;;;;5021304;28;20061;-43
2022/03/30 11:49:05;;;;;;;46.83;35.15;;;12.20;91.30;;;;;;5033343;28;20088;-49
2022/03/30 11:51:32;;;;;;;49.53;35.25;;;12.10;91.00;;;;;;5031667;28;20052;-55
2022/03/30 11:53:59;;;;;;;48.17;36.35;;;12.10;91.10;;;;;;5033264;28;20543;-52
2022/03/30 11:56:25;;;;;;;50.13;33.97;;;12.20;91.20;;;;;;5033013;28;20042;-48
2022/03/30 11:58:52;;;;;;;45.92;35.20;;;12.20;90.90;;;;;;5033205;28;20493;-51
2022/03/30 12:01:19;;;;;;;46.95;35.25;;;12.20;90.10;;;;;;5032958;28;20033;-50
2022/03/30 12:03:51;;;;;;;50.17;35.90;;;12.10;90.40;;;;;;5032932;28;20038;-52
2022/03/30 12:06:18;;;;;;;51.90;34.28;;;12.20;90.90;;;;;;5033100;28;20049;-53
2022/03/30 12:08:46;;;;;;;47.85;33.50;;;12.40;90.50;;;;;;5038463;28;20072;-53
2022/03/30 12:11:13;;;;;;;45.60;35.58;;;12.50;90.10;;;;;;5037637;28;20049;-46
2022/03/30 12:13:40;;;;;;;52.30;36.25;;;12.50;90.10;;;;;;5033319;28;20547;-51
2022/03/30 12:16:07;;;;;;;48.33;34.58;;;12.60;89.60;;;;;;5033125;28;20053;-51
2022/03/30 12:18:34;;;;;;;43.55;32.85;;;12.80;88.40;;;;;;5038360;28;20052;-55
2022/03/30 12:21:01;;;;;;;46.50;32.40;;;12.70;86.10;;;;;;5032951;28;20128;-53
2022/03/30 12:23:27;;;;;;;41.42;31.10;;;12.70;85.40;;;;;;5037301;28;20089;-47
2022/03/30 12:25:54;;;;;;;45.03;31.98;;;12.70;85.60;;;;;;5031781;28;20045;-50
2022/03/30 12:28:22;;;;;;;40.80;31.67;;;12.90;84.60;;;;;;5033041;28;20037;-47
2022/03/30 12:30:49;;;;;;;47.10;30.33;;;12.90;84.20;;;;;;5035952;28;20358;-48
2022/03/30 12:33:16;;;;;;;48.30;33.65;;;12.80;83.70;;;;;;5033046;28;20133;-47
2022/03/30 12:35:43;;;;;;;46.63;34.33;;;12.80;87.10;;;;;;5033097;28;20084;-50
2022/03/30 12:38:11;;;;;;;54.30;36.45;;;12.90;88.10;;;;;;5033016;28;20041;-53
2022/03/30 12:40:38;;;;;;;54.92;38.80;;;12.80;89.50;;;;;;5032165;28;20508;-55
2022/03/30 12:43:05;;;;;;;52.00;37.25;;;12.30;90.50;;;;;;5027977;28;20045;-50
2022/03/30 12:45:32;;;;;;;60.17;37.75;;;12.20;90.70;;;;;;5032672;28;20588;-48
2022/03/30 12:48:01;;;;;;;49.00;37.72;;;12.00;91.20;;;;;;5036167;28;20048;-49
2022/03/30 12:50:29;;;;;;;51.08;35.90;;;12.00;91.60;;;;;;5032728;28;20037;-51
2022/03/30 12:52:59;;;;;;;51.47;36.95;;;12.10;91.40;;;;;;5034414;28;20053;-52
2022/03/30 12:55:28;;;;;;;56.72;37.20;;;12.20;91.30;;;;;;5032772;28;20041;-47
2022/03/30 12:57:54;;;;;;;47.97;35.63;;;12.10;91.40;;;;;;5033483;28;20037;-53
2022/03/30 13:00:21;;;;;;;54.97;36.78;;;12.10;91.60;;;;;;5032526;28;20045;-48
2022/03/30 13:02:48;;;;;;;57.10;37.92;;;12.00;91.60;;;;;;5031775;28;20095;-50
2022/03/30 13:05:20;;;;;;;50.08;36.28;;;12.10;91.30;;;;;;5032148;28;20038;-49
2022/03/30 13:07:47;;;;;;;49.60;36.28;;;12.00;91.20;;;;;;5037217;28;20358;-47
2022/03/30 13:10:14;;;;;;;57.03;36.72;;;12.10;90.90;;;;;;5033028;28;20033;-52
2022/03/30 13:12:41;;;;;;;53.70;35.20;;;12.10;91.00;;;;;;5038104;28;20048;-50
2022/03/30 13:15:07;;;;;;;51.60;35.85;;;12.10;90.80;;;;;;5032341;28;20076;-50
2022/03/30 13:17:34;;;;;;;55.53;36.00;;;12.00;90.80;;;;;;5032365;28;20041;-53
2022/03/30 13:20:01;;;;;;;54.67;37.45;;;12.10;91.00;;;;;;5031950;28;20045;-50
2022/03/30 13:22:28;;;;;;;57.83;39.28;;;12.00;91.00;;;;;;5033440;28;20048;-45
2022/03/30 13:24:54;;;;;;;51.03;36.25;;;11.80;90.70;;;;;;5035570;28;20052;-49
2022/03/30 13:27:21;;;;;;;56.08;36.33;;;11.80;90.80;;;;;;5038809;28;20433;-47
2022/03/30 13:29:50;;;;;;;50.63;35.58;;;11.90;91.10;;;;;;5035699;28;20076;-48
2022/03/30 13:32:17;;;;;;;48.20;35.97;;;11.90;90.70;;;;;;5037597;28;20395;-53
2022/03/30 13:34:44;;;;;;;49.42;35.13;;;12.00;91.10;;;;;;5034441;28;20041;-52
2022/03/30 13:37:11;;;;;;;57.42;36.33;;;12.00;90.50;;;;;;5035279;28;20052;-54
2022/03/30 13:39:38;;;;;;;54.78;34.95;;;12.10;90.60;;;;;;5035128;28;20041;-49
2022/03/30 13:42:05;;;;;;;49.75;35.55;;;12.10;90.30;;;;;;5028965;28;20489;-50
2022/03/30 13:44:31;;;;;;;45.70;35.30;;;12.10;90.50;;;;;;5035723;28;20065;-52
2022/03/30 13:46:59;;;;;;;48.70;34.10;;;12.00;90.00;;;;;;5034284;28;20455;-51
2022/03/30 13:49:44;;;;;;;53.13;34.47;;;12.00;90.30;;;;;;5035265;28;20045;-50
2022/03/30 13:52:14;;;;;;;48.88;35.47;;;12.00;90.20;;;;;;5035552;28;20053;-49
2022/03/30 13:54:41;;;;;;;45.85;33.22;;;12.00;90.00;;;;;;5035242;28;20053;-52
2022/03/30 13:57:08;;;;;;;45.65;33.90;;;12.00;90.40;;;;;;5038533;28;20120;-50
2022/03/30 13:59:39;;;;;;;48.15;34.03;;;12.00;90.40;;;;;;5035065;28;20042;-53
2022/03/30 14:02:06;;;;;;;53.67;35.10;;;12.10;90.10;;;;;;5035211;28;20472;-48
2022/03/30 14:04:33;;;;;;;48.25;33.97;;;12.00;90.10;;;;;;5038731;28;20385;-50
2022/03/30 14:07:00;;;;;;;45.83;33.45;;;12.00;90.30;;;;;;5034809;28;20065;-50
2022/03/30 14:09:31;;;;;;;46.92;34.63;;;11.90;90.30;;;;;;5034960;28;20381;-49
2022/03/30 14:11:58;;;;;;;50.22;33.35;;;11.90;90.30;;;;;;5035021;28;20077;-50
2022/03/30 14:14:25;;;;;;;52.60;33.70;;;11.80;90.50;;;;;;5034865;28;20049;-45
2022/03/30 14:16:52;;;;;;;49.00;34.13;;;11.70;90.50;;;;;;5034753;28;20397;-49
2022/03/30 14:19:20;;;;;;;51.00;35.13;;;11.80;90.90;;;;;;5033757;28;20465;-48
2022/03/30 14:21:47;;;;;;;52.28;34.97;;;11.80;90.50;;;;;;5034125;28;20049;-48
2022/03/30 14:24:15;;;;;;;49.13;32.90;;;11.80;90.50;;;;;;5033910;28;20508;-50
2022/03/30 14:26:41;;;;;;;47.20;34.72;;;11.70;90.40;;;;;;5034019;28;20045;-46
2022/03/30 14:29:08;;;;;;;51.83;35.63;;;11.70;90.70;;;;;;5033843;28;20045;-44
2022/03/30 14:31:38;;;;;;;52.50;34.65;;;11.70;90.40;;;;;;5033767;28;20053;-46
2022/03/30 14:34:05;;;;;;;48.70;35.58;;;11.70;90.20;;;;;;5039717;28;20492;-49
2022/03/30 14:36:32;;;;;;;46.03;33.40;;;11.80;90.40;;;;;;5033784;28;20045;-51
2022/03/30 14:38:58;;;;;;;53.15;35.00;;;11.90;90.10;;;;;;5034938;28;20046;-48
2022/03/30 14:41:25;;;;;;;51.78;32.88;;;12.00;89.90;;;;;;5033858;28;20072;-50
2022/03/30 14:43:52;;;;;;;49.55;33.47;;;12.20;89.20;;;;;;5033850;28;20037;-51
2022/03/30 14:46:18;;;;;;;46.05;33.08;;;12.30;86.90;;;;;;5033879;28;20381;-52
2022/03/30 14:48:45;;;;;;;42.95;31.92;;;12.40;86.50;;;;;;5032302;28;20121;-52
2022/03/30 14:51:12;;;;;;;43.95;32.92;;;12.50;86.30;;;;;;5033478;28;20424;-49
2022/03/30 14:53:40;;;;;;;51.67;32.97;;;12.60;85.80;;;;;;5033477;28;20046;-53
2022/03/30 14:56:06;;;;;;;45.88;32.67;;;12.80;87.40;;;;;;5032213;28;20038;-51
2022/03/30 14:58:33;;;;;;;41.22;31.83;;;12.90;86.10;;;;;;5032699;28;20735;-48
2022/03/30 15:01:00;;;;;;;43.30;31.42;;;12.70;84.00;;;;;;5032937;28;20501;-51
2022/03/30 15:03:27;;;;;;;43.67;32.67;;;12.50;85.50;;;;;;5033332;28;20500;-51
2022/03/30 15:05:54;;;;;;;41.17;29.67;;;12.50;84.60;;;;;;5031956;28;20503;-50
2022/03/30 15:08:21;;;;;;;45.80;30.90;;;12.40;85.20;;;;;;5037229;28;20049;-52
2022/03/30 15:10:48;;;;;;;45.83;31.67;;;12.30;85.20;;;;;;5032863;28;20045;-46
2022/03/30 15:13:15;;;;;;;44.65;32.20;;;12.20;86.00;;;;;;5033055;28;20083;-50
2022/03/30 15:15:42;;;;;;;51.45;32.75;;;12.00;88.30;;;;;;5032741;28;20124;-52
2022/03/30 15:18:09;;;;;;;53.22;34.13;;;11.80;91.50;;;;;;5032828;28;20036;-48
2022/03/30 15:20:36;;;;;;;49.30;36.40;;;11.40;92.60;;;;;;5032847;28;20140;-48
2022/03/30 15:23:02;;;;;;;57.20;34.55;;;11.30;93.70;;;;;;5033228;28;20072;-52
2022/03/30 15:25:29;;;;;;;50.70;34.83;;;11.20;93.40;;;;;;5033009;28;20099;-50
2022/03/30 15:27:56;;;;;;;47.42;34.70;;;11.10;93.20;;;;;;5033678;28;20099;-44
2022/03/30 15:30:23;;;;;;;53.30;36.00;;;11.00;93.60;;;;;;5033764;28;20049;-51
2022/03/30 15:32:50;;;;;;;53.95;35.55;;;11.00;94.10;;;;;;5033929;28;20051;-47
2022/03/30 15:35:17;;;;;;;49.17;34.10;;;10.40;95.50;;;;;;5034026;28;20062;-46
2022/03/30 15:37:44;;;;;;;52.60;37.72;;;10.10;96.00;;;;;;5039476;28;20072;-46
2022/03/30 15:40:11;;;;;;;54.45;37.97;;;10.00;98.00;;;;;;5033799;28;20041;-52
2022/03/30 15:42:38;;;;;;;57.10;39.30;;;10.00;97.90;;;;;;5033468;28;20120;-46
2022/03/30 15:45:04;;;;;;;60.88;39.03;;;10.10;98.60;;;;;;5032984;28;20055;-44
2022/03/30 15:47:31;;;;;;;54.45;37.45;;;10.20;98.90;;;;;;5032127;28;20080;-48
2022/03/30 15:49:58;;;;;;;54.17;36.63;;;10.30;98.70;;;;;;5033574;28;20049;-51
2022/03/30 15:52:25;;;;;;;52.83;36.58;;;10.30;97.00;;;;;;5033478;28;20041;-50
2022/03/30 15:54:51;;;;;;;47.70;34.22;;;10.30;98.10;;;;;;5033475;28;20092;-52
2022/03/30 15:57:18;;;;;;;54.20;36.63;;;10.20;96.60;;;;;;5033532;28;20405;-48
2022/03/30 15:59:46;;;;;;;56.40;37.17;;;10.20;97.40;;;;;;5033404;28;20041;-48
2022/03/30 16:02:13;;;;;;;48.95;34.78;;;10.10;97.30;;;;;;5033313;28;20040;-49
2022/03/30 16:04:40;;;;;;;48.83;35.78;;;10.10;97.30;;;;;;5037220;28;20064;-47
2022/03/30 16:07:07;;;;;;;54.50;35.38;;;10.00;97.00;;;;;;5033855;28;20475;-47
2022/03/30 16:09:35;;;;;;;49.38;34.08;;;9.90;97.60;;;;;;5031730;28;20496;-46
2022/03/30 16:12:19;;;;;;;49.55;35.47;;;9.90;96.30;;;;;;5032092;28;20111;-48
2022/03/30 16:14:47;;;;;;;52.47;35.20;;;9.80;96.20;;;;;;5032227;28;20396;-52
2022/03/30 16:17:15;;;;;;;52.97;36.22;;;9.80;96.40;;;;;;5032126;28;20041;-49
2022/03/30 16:19:42;;;;;;;60.60;37.05;;;9.80;97.10;;;;;;5032055;28;20156;-46
2022/03/30 16:22:08;;;;;;;52.65;35.83;;;9.70;96.90;;;;;;5032217;28;20037;-49
2022/03/30 16:24:35;;;;;;;52.13;36.00;;;9.70;96.40;;;;;;5031983;28;20042;-48
2022/03/30 16:27:02;;;;;;;49.08;35.05;;;9.70;97.00;;;;;;5032229;28;20045;-48
2022/03/30 16:29:29;;;;;;;49.05;35.67;;;9.60;96.10;;;;;;5031715;28;20112;-50
2022/03/30 16:31:56;;;;;;;53.35;34.72;;;9.60;96.50;;;;;;5031951;28;20079;-46
2022/03/30 16:34:22;;;;;;;50.38;32.78;;;9.60;97.20;;;;;;5031859;28;20404;-45
2022/03/30 16:36:49;;;;;;;46.08;33.60;;;9.60;95.80;;;;;;5037324;28;20077;-49
2022/03/30 16:39:16;;;;;;;47.85;31.73;;;9.60;95.90;;;;;;5032047;28;20144;-49
2022/03/30 16:41:44;;;;;;;50.55;33.17;;;9.60;95.90;;;;;;5031886;28;20053;-53
2022/03/30 16:44:12;;;;;;;48.58;32.03;;;9.60;95.50;;;;;;5031983;28;20052;-47
2022/03/30 16:46:39;;;;;;;47.50;32.42;;;9.60;95.20;;;;;;5031707;28;20115;-47
2022/03/30 16:49:05;;;;;;;49.67;34.90;;;9.60;96.60;;;;;;5031833;28;20392;-48
2022/03/30 16:51:37;;;;;;;43.67;32.72;;;9.70;96.50;;;;;;5033650;28;20464;-47
2022/03/30 16:54:04;;;;;;;43.50;31.58;;;9.70;96.10;;;;;;5031652;28;20150;-45
2022/03/30 16:56:31;;;;;;;38.72;30.15;;;9.80;95.00;;;;;;5031542;28;20060;-50
2022/03/30 16:58:58;;;;;;;48.25;33.25;;;9.70;94.80;;;;;;5034463;28;20080;-49
2022/03/30 17:01:24;;;;;;;50.83;34.47;;;9.70;95.20;;;;;;5035574;28;20037;-47
2022/03/30 17:03:52;;;;;;;46.45;33.13;;;9.70;95.30;;;;;;5035616;28;20112;-48
2022/03/30 17:06:20;;;;;;;49.35;32.92;;;9.70;95.50;;;;;;5035255;28;20052;-48
2022/03/30 17:11:33;;;;;;;50.33;32.55;;;9.70;94.40;;;;;;5038657;28;20465;-47
2022/03/30 17:14:00;;;;;;;46.38;32.33;;;9.70;95.30;;;;;;5035682;28;20476;-47
2022/03/30 17:16:26;;;;;;;45.42;30.80;;;9.70;94.50;;;;;;5035259;28;20045;-45
2022/03/30 17:18:53;;;;;;;45.25;31.67;;;9.70;93.80;;;;;;5029221;28;20045;-45
2022/03/30 17:21:20;;;;;;;41.50;31.08;;;9.70;94.40;;;;;;5029096;28;20042;-44
2022/03/30 17:23:47;;;;;;;47.42;32.80;;;9.70;93.80;;;;;;5035554;28;20069;-48
2022/03/30 17:26:16;;;;;;;48.30;31.80;;;9.60;94.10;;;;;;5035528;28;20129;-48
